Flight Track Log - Related Links

Times and Time Zones

All times are in EDT time to prevent confusion due to time zone crossing. See the N30TP flight status page for this flight to view local times or setup timezone preferences in your user account.

Time Position Orientation Groundspeed Altitude Reporting Facility
EDT Latitude Longitude Course Direction KTS MPH feet Rate Location/Type
Tue 07:06:36 AM 45.0833 -92.4833 200° South 111 128 2,800  Level Minneapolis TRACON
Tue 07:07:42 AM 45.0500 -92.4833 180° South 114 131 3,300 480 Climbing Minneapolis TRACON
Tue 07:08:16 AM 45.0292 -92.4742 163° South 114 131 3,600 511 Climbing Minneapolis Center
Tue 07:09:16 AM 44.9964 -92.4731 179° South 117 135 4,100 496 Climbing Minneapolis Center
Tue 07:10:17 AM 44.9617 -92.4747 182° South 123 142 4,600 443 Climbing Minneapolis Center
Tue 07:11:00 AM 44.9285 -92.5613 180° South  Level Estimated
Tue 07:11:18 AM 44.9275 -92.4803 187° South 124 143 5,000  Level Minneapolis Center
Tue 07:12:00 AM 44.8846 -92.5657 200° South  Level Estimated
Tue 07:12:18 AM 44.8908 -92.4861 186° South 131 151 5,300  Level Minneapolis Center
Tue 07:13:19 AM 44.8539 -92.4931 188° South 133 153 5,800 443 Climbing Minneapolis Center
Tue 07:14:20 AM 44.8183 -92.5011 189° South 131 151 6,200 397 Climbing Minneapolis Center
Tue 07:15:20 AM 44.7892 -92.5047 185° South 132 152 6,600 496 Climbing Minneapolis Center
Tue 07:16:21 AM 44.7467 -92.5108 186° South 128 147 7,200 590 Climbing Minneapolis Center
Tue 07:17:22 AM 44.7042 -92.5153 184° South 127 146 7,800 393 Climbing Minneapolis Center
Tue 07:18:23 AM 44.6669 -92.5186 184° South 133 153 8,000 98 Climbing Minneapolis Center
Tue 07:19:24 AM 44.6253 -92.5228 184° South 148 170 8,000  Level Minneapolis Center
Tue 07:20:24 AM 44.5892 -92.5267 184° South 160 184 8,000  Level Minneapolis Center
Tue 07:21:25 AM 44.5333 -92.5333 185° South 169 194 8,000  Level Minneapolis Center
Tue 07:22:26 AM 44.4867 -92.5389 185° South 169 194 8,000  Level Minneapolis Center
Tue 07:23:27 AM 44.4408 -92.5436 184° South 166 191 8,000 -49 Level Minneapolis Center
Tue 07:24:28 AM 44.4053 -92.5497 187° South 162 186 7,900 -49 Descending Minneapolis Center
Tue 07:25:29 AM 44.3550 -92.5536 183° South 153 176 7,900 49 Level Minneapolis Center
Tue 07:26:30 AM 44.3097 -92.5594 185° South 149 171 8,000 49 Climbing Minneapolis Center
Tue 07:27:31 AM 44.2697 -92.5628 183° South 147 169 8,000  Level Minneapolis Center
Tue 07:28:32 AM 44.2308 -92.5667 184° South 142 163 8,000  Level Minneapolis Center
Tue 07:29:33 AM 44.1872 -92.5711 184° South 146 168 8,000  Level Minneapolis Center
Tue 07:30:34 AM 44.1475 -92.5753 184° South 146 168 8,000  Level Minneapolis Center
Tue 07:31:35 AM 44.1069 -92.5800 185° South 147 169 8,000  Level Minneapolis Center
Tue 07:32:36 AM 44.0619 -92.5853 185° South 151 174 8,000  Level Minneapolis Center
Tue 07:34:01 AM 44.0108 -92.5914 185° South 150 173 8,000  Level Minneapolis Center
Tue 07:35:03 AM 43.9639 -92.5967 185° South 147 169 8,000 49 Level Minneapolis Center
Tue 07:36:04 AM 43.9200 -92.5997 183° South 148 170 8,100 49 Climbing Minneapolis Center
Tue 07:37:05 AM 43.8794 -92.6031 183° South 149 171 8,100  Level Minneapolis Center
Tue 07:38:18 AM 43.8356 -92.6083 185° South 149 171 8,100  Level Minneapolis Center
Tue 07:39:19 AM 43.7850 -92.6153 186° South 147 169 8,100  Level Minneapolis Center
Tue 07:40:20 AM 43.7439 -92.6203 185° South 150 173 8,100  Level Minneapolis Center
Tue 07:41:34 AM 43.7036 -92.6242 184° South 147 169 8,100  Level Minneapolis Center
Tue 07:42:35 AM 43.6522 -92.6289 184° South 149 171 8,100 -49 Level Minneapolis Center
Tue 07:43:36 AM 43.6078 -92.6333 184° South 149 171 8,000  Descending Minneapolis Center
Tue 07:44:50 AM 43.5672 -92.6386 185° South 148 170 8,100 44 Climbing Minneapolis Center
Tue 07:45:51 AM 43.5267 -92.6433 185° South 147 169 8,100  Level Minneapolis Center
Tue 07:46:53 AM 43.4758 -92.6492 185° South 149 171 8,100  Level Minneapolis Center
Tue 07:47:54 AM 43.4314 -92.6525 183° South 149 171 8,100  Level Minneapolis Center
Tue 07:48:55 AM 43.3903 -92.6578 185° South 149 171 8,100  Level Minneapolis Center
Tue 07:49:56 AM 43.3486 -92.6600 182° South 151 174 8,100  Level Minneapolis Center
Tue 07:50:58 AM 43.3039 -92.6656 185° South 150 173 8,100  Level Minneapolis Center
Tue 07:52:11 AM 43.2644 -92.6706 185° South 152 175 8,100  Level Minneapolis Center
Tue 07:53:13 AM 43.2142 -92.6778 186° South 153 176 8,100  Level Minneapolis Center
Tue 07:54:14 AM 43.1728 -92.6822 184° South 152 175 8,100  Level Minneapolis Center
Tue 07:55:15 AM 43.1397 -92.6853 184° South 151 174 8,100  Level Minneapolis Center
Tue 07:56:17 AM 43.0897 -92.6903 184° South 151 174 8,100  Level Minneapolis Center
Tue 07:57:19 AM 43.0389 -92.6947 184° South 153 176 8,100  Level Minneapolis Center
Tue 07:58:32 AM 42.9969 -92.6981 183° South 152 175 8,100  Level Minneapolis Center
Tue 07:59:34 AM 42.9456 -92.7033 184° South 155 178 8,100  Level Minneapolis Center
Tue 08:00:37 AM 42.9028 -92.7089 185° South 156 180 8,100  Level Minneapolis Center
Tue 08:01:09 AM 42.8742 -92.7119 184° South 153 176 8,100  Level Chicago Center
Tue 08:02:11 AM 42.8311 -92.7153 183° South 154 177 8,100  Level Chicago Center
Tue 08:03:13 AM 42.7817 -92.7211 185° South 153 176 8,100  Level Chicago Center
Tue 08:04:15 AM 42.7400 -92.7236 183° South 152 175 8,100  Level Chicago Center
Tue 08:05:17 AM 42.6967 -92.7269 183° South 153 176 8,100  Level Chicago Center
Tue 08:06:19 AM 42.6542 -92.7311 184° South 154 177 8,100  Level Chicago Center
Tue 08:07:21 AM 42.6111 -92.7353 184° South 156 180 8,100  Level Chicago Center
Tue 08:08:23 AM 42.5594 -92.7411 185° South 156 180 8,100  Level Chicago Center
Tue 08:09:25 AM 42.5164 -92.7450 184° South 157 181 8,100  Level Chicago Center
Tue 08:10:28 AM 42.4733 -92.7508 186° South 157 181 8,100  Level Chicago Center
Tue 08:11:30 AM 42.4297 -92.7536 183° South 157 181 8,100  Level Chicago Center
Tue 08:12:32 AM 42.3869 -92.7586 185° South 157 181 8,100 -48 Level Chicago Center
Tue 08:13:34 AM 42.3358 -92.7631 184° South 156 180 8,000  Descending Chicago Center
Tue 08:14:36 AM 42.2925 -92.7667 184° South 157 181 8,100 48 Climbing Chicago Center
Tue 08:15:38 AM 42.2522 -92.7733 187° South 153 176 8,100  Level Chicago Center
Tue 08:16:40 AM 42.2100 -92.7772 184° South 152 175 8,100  Level Chicago Center
Tue 08:17:42 AM 42.1575 -92.7803 182° South 157 181 8,100  Level Chicago Center
Tue 08:18:44 AM 42.1144 -92.7847 184° South 157 181 8,100  Level Chicago Center
Tue 08:19:46 AM 42.0714 -92.7897 185° South 158 182 8,100  Level Chicago Center
Tue 08:20:48 AM 42.0269 -92.7939 184° South 159 183 8,100  Level Chicago Center
Tue 08:21:50 AM 41.9847 -92.8003 186° South 156 180 8,100  Level Chicago Center
Tue 08:22:53 AM 41.9322 -92.8036 183° South 158 182 8,100  Level Chicago Center
Tue 08:23:55 AM 41.8900 -92.8100 186° South 155 178 8,100  Level Chicago Center
Tue 08:24:57 AM 41.8478 -92.8147 185° South 154 177 8,100  Level Chicago Center
Tue 08:25:59 AM 41.8056 -92.8178 183° South 153 176 8,100  Level Chicago Center
Tue 08:27:03 AM 41.7611 -92.8169 179° South 153 176 8,100  Level Minneapolis Center
Tue 08:28:04 AM 41.7153 -92.8192 182° South 154 177 8,100  Level Minneapolis Center
Tue 08:29:05 AM 41.6739 -92.8236 185° South 153 176 8,100  Level Minneapolis Center
Tue 08:30:05 AM 41.6303 -92.8281 184° South 153 176 8,100  Level Minneapolis Center
Tue 08:31:06 AM 41.5886 -92.8325 185° South 152 175 8,100  Level Minneapolis Center
Tue 08:32:07 AM 41.5469 -92.8369 185° South 153 176 8,100  Level Minneapolis Center
Tue 08:33:33 AM 41.4783 -92.8533 190° South 154 177 8,100  Level Minneapolis Center
Tue 08:34:35 AM 41.4364 -92.8564 183° South 153 176 8,100  Level Minneapolis Center
Tue 08:35:36 AM 41.3939 -92.8603 184° South 153 176 8,100  Level Minneapolis Center
Tue 08:36:20 AM 41.3608 -92.8597 179° South 154 177 8,100  Level Chicago Center
Tue 08:37:22 AM 41.3186 -92.8653 186° South 153 176 8,100  Level Chicago Center
Tue 08:38:24 AM 41.2767 -92.8711 186° South 154 177 8,100  Level Chicago Center
Tue 08:39:26 AM 41.2336 -92.8753 184° South 155 178 8,100  Level Chicago Center
Tue 08:40:28 AM 41.1919 -92.8792 184° South 153 176 8,100  Level Chicago Center
Tue 08:41:30 AM 41.1417 -92.8833 184° South 153 176 8,100  Level Chicago Center
Tue 08:42:32 AM 41.0994 -92.8858 183° South 153 176 8,100  Level Chicago Center
Tue 08:43:34 AM 41.0575 -92.8892 183° South 153 176 8,100  Level Chicago Center
Tue 08:44:36 AM 41.0147 -92.8936 184° South 154 177 8,100  Level Chicago Center
Tue 08:45:38 AM 40.9714 -92.8986 185° South 156 180 8,100  Level Chicago Center
Tue 08:46:41 AM 40.9203 -92.9056 186° South 155 178 8,100  Level Chicago Center
Tue 08:47:43 AM 40.8786 -92.9094 184° South 153 176 8,100  Level Chicago Center
Tue 08:48:45 AM 40.8369 -92.9139 185° South 153 176 8,100  Level Chicago Center
Tue 08:49:47 AM 40.7947 -92.9172 183° South 153 176 8,100  Level Chicago Center
Tue 08:50:49 AM 40.7528 -92.9203 183° South 153 176 8,100  Level Chicago Center
Tue 08:51:51 AM 40.7028 -92.9253 184° South 152 175 8,100  Level Chicago Center
Tue 08:52:53 AM 40.6603 -92.9292 184° South 154 177 8,100  Level Chicago Center
Tue 08:53:55 AM 40.6183 -92.9333 184° South 153 176 8,100  Level Chicago Center
Tue 08:54:45 AM 40.5842 -92.9375 185° South 153 176 8,100  Level Kansas City Center
Tue 08:55:46 AM 40.5422 -92.9414 184° South 153 176 8,100  Level Kansas City Center
Tue 08:56:47 AM 40.5000 -92.9458 185° South 154 177 8,100  Level Kansas City Center
Tue 08:57:47 AM 40.4492 -92.9494 183° South 154 177 8,100  Level Kansas City Center
Tue 08:58:49 AM 40.4067 -92.9533 184° South 154 177 8,100  Level Kansas City Center
Tue 08:59:51 AM 40.3653 -92.9578 185° South 153 176 8,100  Level Kansas City Center
Tue 09:00:55 AM 40.3231 -92.9631 185° South 153 176 8,100  Level Kansas City Center
Tue 09:01:55 AM 40.2811 -92.9669 184° South 153 176 8,100  Level Kansas City Center
Tue 09:02:59 AM 40.2294 -92.9711 184° South 156 180 8,100  Level Kansas City Center
Tue 09:03:59 AM 40.1878 -92.9747 184° South 154 177 8,100  Level Kansas City Center
Tue 09:05:00 AM 40.1453 -92.9778 183° South 154 177 8,100  Level Kansas City Center
Tue 09:06:02 AM 40.1042 -92.9825 185° South 151 174 8,100  Level Kansas City Center
Tue 09:07:05 AM 40.0617 -92.9872 185° South 153 176 8,100  Level Kansas City Center
Tue 09:08:06 AM 40.0114 -92.9928 185° South 153 176 8,100  Level Kansas City Center
Tue 09:09:10 AM 39.9700 -92.9969 184° South 152 175 8,100  Level Kansas City Center
Tue 09:10:10 AM 39.9283 -93.0003 184° South 151 174 8,100  Level Kansas City Center
Tue 09:11:13 AM 39.8867 -93.0031 183° South 151 174 8,100  Level Kansas City Center
Tue 09:12:13 AM 39.8453 -93.0069 184° South 151 174 8,100  Level Kansas City Center
Tue 09:13:16 AM 39.7942 -93.0106 183° South 152 175 8,100  Level Kansas City Center
Tue 09:14:17 AM 39.7525 -93.0147 184° South 152 175 8,100  Level Kansas City Center
Tue 09:15:20 AM 39.7106 -93.0214 187° South 153 176 8,100  Level Kansas City Center
Tue 09:16:20 AM 39.6678 -93.0258 185° South 154 177 8,100  Level Kansas City Center
Tue 09:17:24 AM 39.6256 -93.0297 184° South 154 177 8,100  Level Kansas City Center
Tue 09:18:25 AM 39.5750 -93.0325 182° South 153 176 8,100  Level Kansas City Center
Tue 09:19:28 AM 39.5317 -93.0353 183° South 154 177 8,100  Level Kansas City Center
Tue 09:20:28 AM 39.4889 -93.0372 182° South 155 178 8,100  Level Kansas City Center
Tue 09:21:30 AM 39.4453 -93.0431 186° South 157 181 8,100  Level Kansas City Center
Tue 09:22:33 AM 39.4042 -93.0486 186° South 154 177 8,100  Level Kansas City Center
Tue 09:23:34 AM 39.3606 -93.0531 185° South 156 180 8,100 48 Level Kansas City Center
Tue 09:24:38 AM 39.3106 -93.0572 184° South 153 176 8,200  Climbing Kansas City Center
Tue 09:25:38 AM 39.2669 -93.0611 184° South 156 180 8,100 -49 Descending Kansas City Center
Tue 09:26:41 AM 39.2236 -93.0644 183° South 157 181 8,100  Level Kansas City Center
Tue 09:27:42 AM 39.1808 -93.0686 184° South 156 180 8,100  Level Kansas City Center
Tue 09:28:46 AM 39.1381 -93.0733 185° South 155 178 8,100  Level Kansas City Center
Tue 09:29:46 AM 39.0861 -93.0764 183° South 156 180 8,100  Level Kansas City Center
Tue 09:30:49 AM 39.0417 -93.0825 186° South 160 184 8,100  Level Kansas City Center
Tue 09:31:50 AM 38.9936 -93.0861 183° South 157 181 8,100  Level Kansas City Center
Tue 09:32:51 AM 38.9483 -93.0900 184° South 161 185 8,100  Level Kansas City Center
Tue 09:33:55 AM 38.9036 -93.0936 184° South 161 185 8,100  Level Kansas City Center
Tue 09:34:55 AM 38.8597 -93.0956 182° South 159 183 8,100  Level Kansas City Center
Tue 09:35:59 AM 38.8147 -93.1000 184° South 160 184 8,100  Level Kansas City Center
Tue 09:37:00 AM 38.7703 -93.1053 185° South 160 184 8,100  Level Kansas City Center
Tue 09:38:01 AM 38.7247 -93.1094 184° South 162 186 8,100  Level Kansas City Center
Tue 09:39:04 AM 38.6711 -93.1147 184° South 162 186 8,100  Level Kansas City Center
Tue 09:40:05 AM 38.6261 -93.1203 186° South 161 185 8,100  Level Kansas City Center
Tue 09:41:08 AM 38.5803 -93.1239 184° South 163 188 8,100  Level Kansas City Center
Tue 09:42:09 AM 38.5353 -93.1278 184° South 162 186 8,100  Level Kansas City Center
Tue 09:43:13 AM 38.4914 -93.1306 183° South 160 184 8,100  Level Kansas City Center
Tue 09:44:13 AM 38.4456 -93.1350 184° South 162 186 8,100  Level Kansas City Center
Tue 09:45:16 AM 38.3911 -93.1406 185° South 163 188 8,100  Level Kansas City Center
Tue 09:46:17 AM 38.3450 -93.1444 184° South 164 189 8,100  Level Kansas City Center
Tue 09:47:18 AM 38.3003 -93.1492 185° South 163 188 8,100  Level Kansas City Center
Tue 09:48:22 AM 38.2550 -93.1533 184° South 163 188 8,100  Level Kansas City Center
Tue 09:49:22 AM 38.2092 -93.1567 183° South 164 189 8,100  Level Kansas City Center
Tue 09:50:24 AM 38.1644 -93.1603 184° South 162 186 8,100  Level Kansas City Center
Tue 09:51:28 AM 38.1194 -93.1647 184° South 162 186 8,100  Level Kansas City Center
Tue 09:52:29 AM 38.0656 -93.1697 184° South 162 186 8,100  Level Kansas City Center
Tue 09:53:30 AM 38.0217 -93.1736 184° South 159 183 8,100  Level Kansas City Center
Tue 09:54:33 AM 37.9756 -93.1786 185° South 163 188 8,100  Level Kansas City Center
Tue 09:55:34 AM 37.9308 -93.1822 184° South 163 188 8,100 -192 Level Kansas City Center
Tue 09:56:38 AM 37.8850 -93.1853 183° South 163 188 7,700 -484 Descending Kansas City Center
Tue 09:57:38 AM 37.8344 -93.1892 183° South 169 194 7,100 -629 Descending Kansas City Center
Tue 09:58:42 AM 37.7714 -93.1944 184° South 179 206 6,400 -624 Descending Kansas City Center
Tue 09:59:43 AM 37.7183 -93.1975 183° South 186 214 5,800 -629 Descending Kansas City Center
Tue 10:00:46 AM 37.6656 -93.2022 184° South 188 216 5,100 -726 Descending Kansas City Center
Tue 10:01:47 AM 37.6133 -93.2067 184° South 189 217 4,300 -677 Descending Kansas City Center
Tue 10:02:50 AM 37.5597 -93.2111 184° South 190 219 3,700 -532 Descending Kansas City Center
Tue 10:03:51 AM 37.5097 -93.2150 184° South 187 215 3,200 -339 Descending Kansas City Center
Tue 10:04:54 AM 37.4533 -93.2197 184° South 178 205 3,000 -97 Descending Kansas City Center
Tue 10:05:55 AM 37.4153 -93.2225 183° South 160 184 3,000  Level Kansas City Center
Tue 10:06:59 AM 37.3803 -93.2283 188° South 144 166 3,000  Level Kansas City Center
Tue 10:07:59 AM 37.3489 -93.2317 185° South 138 159 3,000  Level Kansas City Center

Login

Don't have an account? Register now (free) for customized features, flight alerts, and more!